Tiempo atmosférico en la estación meteorológica de Carrión De Los Céspedes, Sevilla (76 m.)

Fecha
DESCASC
Temp. máxima en grados centígrados (hora)
DESCASC
Temp. mínima en grados centígrados (hora)
DESCASC
Temp. media en grados centígrados
DESCASC
Racha de viento máxima en m/sg (hora)
DESCASC
Velocidad máxima media en intervalos de 10 minutos(hora)
DESCASC
Precipitaciones diarias en mm
DESCASC
Precipitaciones de 00:00 a 06:00 en mm
DESCASC
Precipitaciones de 06:00 a 12:00 en mm
DESCASC
Precipitaciones de 12:00 a 18:00 en mm
DESCASC
Precipitaciones de 18:00 a 24:00 en mm
DESCASC
21-08-2017 38 (17:20) 20.7 (08:00) 29.4 8.06 (19:20) 4.72 (18:50) 0 0 0 0 0
20-08-2017 39.5 (18:20) 19.8 (08:00) 29.6 7.5 (19:00) 5 (19:40) 0 0 0 0 0
19-08-2017 40.4 (16:30) 18.1 (07:00) 29.3 8.33 (18:50) 5.28 (17:40) 0 0 0 0 0
18-08-2017 39.7 (17:00) 18.3 (07:30) 29 10.56 (17:10) 5.28 (18:10) 0 0 0 0 0
17-08-2017 38.9 (16:50) 17.2 (00:00) 28.1 6.67 (19:50) 4.72 (19:50) 0 0 0 0 0
16-08-2017 39.7 (17:50) 17.4 (00:00) 28.6 8.06 (19:30) 4.72 (19:30) 0 0 0 0 0
15-08-2017 38.8 (18:10) 18.3 (00:00) 28.5 8.89 (19:10) 5.83 (19:20) 0 0 0 0 0
14-08-2017 37.1 (17:20) 17.4 (07:40) 27.2 8.33 (20:00) 5.28 (18:00) 0 0 0 0 0
13-08-2017 37.3 (17:40) 17.8 (00:00) 27.5 8.61 (19:30) 5.28 (19:10) 0 0 0 0 0
12-08-2017 37.4 (18:50) 18.3 (00:00) 27.9 7.5 (17:10) 5 (19:40) 0 0 0 0 0
11-08-2017 36.2 (17:50) 18.4 (00:00) 27.3 12.5 (15:00) 5.83 (12:40) 0 0 0 0 0
10-08-2017 35.3 (18:30) 13.8 (00:00) 24.5 8.89 (12:30) 5.56 (11:50) 0 0 0 0 0
09-08-2017 34.5 (17:20) 15.8 (00:00) 25.2 10.28 (17:50) 6.94 (17:50) 0 0 0 0 0
08-08-2017 36.9 (17:30) 16.8 (00:00) 26.9 10 (16:50) 6.11 (19:00) 0 0 0 0 0
07-08-2017 40.6 (17:00) 20.1 (00:00) 30.3 8.89 (19:00) 5.83 (18:50) 0 0 0 0 0
06-08-2017 41.7 (17:40) 18.8 (00:00) 30.3 8.89 (19:10) 5.83 (19:00) 0 0 0 0 0
05-08-2017 41.9 (16:20) 20.9 (00:00) 31.4 10 (20:30) 5.83 (18:30) 0 0 0 0 0
04-08-2017 43.1 (17:40) 19.2 (00:00) 31.1 8.89 (20:00) 6.11 (20:00) 0 0 0 0 0
03-08-2017 41.2 (18:10) 16.3 (00:00) 28.8 7.5 (20:20) 4.72 (20:20) 0 0 0 0 0
02-08-2017 37.5 (17:30) 15.3 (00:00) 26.4 8.61 (19:50) 6.11 (20:00) 0 0 0 0 0
01-08-2017 34.3 (17:50) 19.7 (00:00) 27 8.33 (20:00) 5.28 (20:10) 0 0 0 0 0
31-07-2017 36.4 (17:50) 15.9 (00:00) 26.2 10 (18:50) 6.11 (18:30) 0 0 0 0 0
30-07-2017 38.7 (16:10) 18.9 (00:00) 28.8 9.72 (17:10) 5.56 (17:00) 0 0 0 0 0
29-07-2017 39.9 (16:30) 15.7 (00:00) 27.8 9.17 (19:20) 5.28 (19:30) 0 0 0 0 0
28-07-2017 40.7 (17:40) 16.8 (00:00) 28.8 8.89 (18:20) 5.56 (19:10) 0 0 0 0 0
27-07-2017 39.2 (16:30) 17.8 (00:00) 28.5 7.78 (18:00) 5 (19:30) 0 0 0 0 0
26-07-2017 35.6 (18:00) 16.8 (00:00) 26.2 8.06 (15:40) 4.72 (17:10) 0 0 0 0 0
25-07-2017 38.5 (16:00) 16.7 (00:00) 27.6 9.44 (17:50) 5.83 (18:00) 0 0 0 0 0
24-07-2017 40.4 (18:30) 15.8 (00:00) 28.1 9.44 (19:10) 5.83 (17:40) 0 0 0 0 0
23-07-2017 37.4 (18:00) 13.9 (00:00) 25.7 10 (19:10) 6.67 (19:10) 0 0 0 0 0

Gráficas

Temp. máximas Temp. mínimas Temp. medias Precipitaciones Rachas de viento máximas Velocidades máximas media en intervalos de 10 minutos

Datos horarios

Fecha y hora oficial Temperatura (ºC) Velocidad del viento (km/h) Dirección del viento Racha (km/h) Dirección de racha Precipitación (mm) Presión (hPa) Tendencia (hPa) Humedad (%)
2017-08-21 23:00:00 26.5 10 Noroeste 16 Oeste 0 -- -- 68
2017-08-21 22:00:00 28.9 9 Oeste 16 Oeste 0 -- -- 57
2017-08-21 21:00:00 31.5 11 Oeste 24 Oeste 0 -- -- 49
2017-08-21 20:00:00 34.7 14 Oeste 29 Sur 0 -- -- 39
2017-08-21 19:00:00 36.7 13 Sudoeste 27 Sudoeste 0 -- -- 35
2017-08-21 18:00:00 37.9 14 Sudoeste 23 Sudoeste 0 -- -- 33
2017-08-21 17:00:00 37.6 5 Sudeste 19 Oeste 0 -- -- 30
2017-08-21 16:00:00 36.7 6 Sudeste 21 Sur 0 -- -- 30
2017-08-21 15:00:00 36.1 10 Sur 19 Sur 0 -- -- 32
2017-08-21 14:00:00 34.8 9 Sudeste 16 Sudeste 0 -- -- 38
2017-08-21 13:00:00 33.3 9 Sudeste 18 Sudeste 0 -- -- 44
2017-08-21 12:00:00 31.1 5 Este 14 Este 0 -- -- 53
2017-08-21 11:00:00 29 7 Nordeste 15 Este 0 -- -- 58
2017-08-21 10:00:00 26.5 9 Nordeste 15 Nordeste 0 -- -- 65
2017-08-21 09:00:00 22.2 0 Calma 2 Noroeste 0 -- -- 80
2017-08-21 08:00:00 20.7 2 Oeste 3 Oeste 0 -- -- 83
2017-08-21 07:00:00 21.7 0 Calma 6 Norte 0 -- -- 80
2017-08-21 06:00:00 22.7 3 Noroeste 8 Noroeste 0 -- -- 78
2017-08-21 05:00:00 23.1 4 Noroeste 7 Noroeste 0 -- -- 76
2017-08-21 04:00:00 24.1 4 Noroeste 9 Noroeste 0 -- -- 75
2017-08-21 03:00:00 24.7 4 Noroeste 12 Noroeste 0 -- -- 73
2017-08-21 02:00:00 25.8 6 Oeste 15 Oeste 0 -- -- 68
2017-08-21 01:00:00 26.7 9 Oeste 17 Noroeste 0 -- -- 65
2017-08-21 00:00:00 27.3 11 Oeste 18 Oeste 0 -- -- 63
2017-08-20 23:00:00 28.1 9 Oeste 23 Noroeste 0 -- -- 62
2017-08-20 22:00:00 29.9 12 Oeste 21 Oeste 0 -- -- 57
2017-08-20 21:00:00 32.7 10 Oeste 26 Oeste 0 -- -- 47
2017-08-20 20:00:00 35.7 15 Oeste 26 Oeste 0 -- -- 41
2017-08-20 19:00:00 38.8 17 Oeste 27 Oeste 0 -- -- 36
2017-08-20 18:00:00 38.6 5 Sur 16 Norte 0 -- -- 28
2017-08-20 17:00:00 38.3 8 Sudeste 19 Sudeste 0 -- -- 26
2017-08-20 16:00:00 37.8 10 Sudeste 23 Sudeste 0 -- -- 32
2017-08-20 15:00:00 37.2 6 Sur 21 Este 0 -- -- 32
2017-08-20 14:00:00 35.6 9 Sudeste 21 Este 0 -- -- 36
2017-08-20 13:00:00 33.7 8 Este 21 Este 0 -- -- 40
2017-08-20 12:00:00 31.9 10 Este 20 Este 0 -- -- 43
2017-08-20 11:00:00 29.8 8 Este 17 Nordeste 0 -- -- 45
2017-08-20 10:00:00 26.9 5 Este 11 Este 0 -- -- 53
2017-08-20 09:00:00 21.6 3 Oeste 5 Noroeste 0 -- -- 70
2017-08-20 08:00:00 19.8 0 Calma 3 Sudoeste 0 -- -- 74
2017-08-20 07:00:00 20 0 Calma 5 Norte 0 -- -- 72
2017-08-20 06:00:00 20.4 0 Calma 5 Noroeste 0 -- -- 70
2017-08-20 05:00:00 20.7 4 Noroeste 6 Noroeste 0 -- -- 66
2017-08-20 04:00:00 21.7 2 Norte 11 Noroeste 0 -- -- 65
2017-08-20 03:00:00 21.9 3 Oeste 8 Oeste 0 -- -- 63
2017-08-20 02:00:00 23.1 5 Oeste 11 Noroeste 0 -- -- 61
2017-08-20 01:00:00 23.5 6 Oeste 8 Oeste 0 -- -- 60
2017-08-20 00:00:00 24.9 2 Oeste 8 Noroeste 0 -- -- 58
2017-08-19 23:00:00 26.5 2 Noroeste 11 Oeste 0 -- -- 54
2017-08-19 22:00:00 29.3 8 Oeste 15 Oeste 0 -- -- 47
2017-08-19 21:00:00 32.7 10 Sudoeste 23 Sudoeste 0 -- -- 40
2017-08-19 20:00:00 36 11 Sudoeste 27 Sudoeste 0 -- -- 32
2017-08-19 19:00:00 37.8 16 Sudoeste 30 Sudoeste 0 -- -- 28
2017-08-19 18:00:00 38.6 17 Sudoeste 30 Sur 0 -- -- 28
2017-08-19 17:00:00 40 16 Sudoeste 27 Sur 0 -- -- 29
2017-08-19 16:00:00 40.1 13 Sudoeste 23 Sudoeste 0 -- -- 28
2017-08-19 15:00:00 38.7 9 Sudoeste 17 Sudoeste 0 -- -- 29
2017-08-19 14:00:00 36.1 5 Sur 16 Sur 0 -- -- 35
2017-08-19 13:00:00 33.9 8 Sudeste 14 Este 0 -- -- 41
2017-08-19 12:00:00 31.6 9 Este 16 Este 0 -- -- 46
2017-08-19 11:00:00 28.9 5 Este 13 Este 0 -- -- 50
2017-08-19 10:00:00 24.7 4 Noroeste 7 Noroeste 0 -- -- 60
2017-08-19 09:00:00 20.7 0 Calma 6 Noroeste 0 -- -- 70
2017-08-19 08:00:00 18.5 5 Noroeste 8 Noroeste 0 -- -- 75
2017-08-19 07:00:00 18.1 7 Noroeste 9 Noroeste 0 -- -- 74
2017-08-19 06:00:00 18.3 3 Noroeste 5 Noroeste 0 -- -- 71
2017-08-19 05:00:00 18.9 0 Calma 3 Norte 0 -- -- 70
2017-08-19 04:00:00 20.2 0 Calma 7 Sudeste 0 -- -- 69
2017-08-19 03:00:00 21.2 0 Calma 5 Sudeste 0 -- -- 66
2017-08-19 02:00:00 22.5 4 Este 8 Sudeste 0 -- -- 62
2017-08-19 01:00:00 23.6 0 Calma 7 Norte 0 -- -- 59
2017-08-19 00:00:00 25.3 2 Noroeste 10 Oeste 0 -- -- 53
2017-08-18 23:00:00 27.6 8 Oeste 11 Oeste 0 -- -- 46
2017-08-18 22:00:00 29.8 6 Oeste 13 Oeste 0 -- -- 41
2017-08-18 21:00:00 32.9 8 Oeste 23 Oeste 0 -- -- 36
2017-08-18 20:00:00 35.8 13 Oeste 29 Oeste 0 -- -- 31
2017-08-18 19:00:00 37.6 19 Oeste 28 Oeste 0 -- -- 29
2017-08-18 18:00:00 39 18 Oeste 38 Sur 0 -- -- 29
2017-08-18 17:00:00 39.7 9 Oeste 20 Sur 0 -- -- 31
2017-08-18 16:00:00 39 8 Sudoeste 18 Sur 0 -- -- 30
2017-08-18 15:00:00 37.4 8 Sudoeste 18 Sudoeste 0 -- -- 34
2017-08-18 14:00:00 35.1 8 Sudoeste 17 Sur 0 -- -- 37
2017-08-18 13:00:00 32.9 5 Sudoeste 13 Sudoeste 0 -- -- 42
2017-08-18 12:00:00 30.3 5 Sur 13 Sudeste 0 -- -- 49
2017-08-18 11:00:00 27.4 3 Nordeste 7 Nordeste 0 -- -- 56
2017-08-18 10:00:00 24.7 2 Este 4 Este 0 -- -- 65
2017-08-18 09:00:00 20.3 0 Calma 5 Noroeste 0 -- -- 78
2017-08-18 08:00:00 18.4 4 Noroeste 6 Noroeste 0 -- -- 80
2017-08-18 07:00:00 18.6 0 Calma 7 Noroeste 0 -- -- 76
2017-08-18 06:00:00 20 0 Calma 4 Este 0 -- -- 74
2017-08-18 05:00:00 21.5 3 Sudeste 10 Norte 0 -- -- 72
2017-08-18 04:00:00 22.8 3 Norte 17 Oeste 0 -- -- 67
2017-08-18 03:00:00 22.8 5 Sudoeste 12 Sur 0 -- -- 70
2017-08-18 02:00:00 23.1 0 Calma 12 Sur 0 -- -- 72
2017-08-18 01:00:00 24.2 6 Sur 11 Sur 0 -- -- 69
2017-08-18 00:00:00 25.5 7 Oeste 17 Oeste 0 -- -- 64
2017-08-17 23:00:00 26.8 9 Oeste 15 Oeste 0 -- -- 59
2017-08-17 22:00:00 29.6 11 Oeste 15 Oeste 0 -- -- 45
2017-08-17 21:00:00 33.5 8 Oeste 20 Oeste 0 -- -- 32
2017-08-17 20:00:00 36.4 16 Oeste 24 Oeste 0 -- -- 29
2017-08-17 19:00:00 38.4 12 Oeste 22 Oeste 0 -- -- 23
2017-08-17 18:00:00 38.8 12 Oeste 21 Oeste 0 -- -- 23
2017-08-17 17:00:00 38.9 12 Oeste 22 Oeste 0 -- -- 24
2017-08-17 16:00:00 37.8 9 Sudoeste 20 Sudoeste 0 -- -- 26
2017-08-17 15:00:00 36.8 9 Sudoeste 19 Sur 0 -- -- 33
2017-08-17 14:00:00 34.5 9 Sur 18 Sur 0 -- -- 37
2017-08-17 13:00:00 32.6 9 Sur 18 Sur 0 -- -- 39
2017-08-17 12:00:00 30.5 8 Sudeste 16 Sudeste 0 -- -- 42
2017-08-17 11:00:00 28.2 6 Sudeste 14 Sudeste 0 -- -- 53
2017-08-17 10:00:00 24.8 6 Sudeste 10 Sudeste 0 -- -- 62
2017-08-17 09:00:00 19 0 Calma 4 Noroeste 0 -- -- 64
2017-08-17 08:00:00 17.4 0 Calma 5 Noroeste 0 -- -- 61
2017-08-17 07:00:00 17.7 4 Noroeste 6 Noroeste 0 -- -- 58
2017-08-17 06:00:00 17.7 5 Noroeste 8 Noroeste 0 -- -- 56
2017-08-17 05:00:00 18.8 4 Noroeste 6 Noroeste 0 -- -- 50
2017-08-17 04:00:00 19.9 2 Noroeste 5 Sudeste 0 -- -- 46
2017-08-17 03:00:00 21.5 4 Sudeste 6 Sudeste 0 -- -- 44
2017-08-17 02:00:00 23.4 2 Noroeste 7 Oeste 0 -- -- 42
2017-08-17 01:00:00 25 4 Noroeste 9 Noroeste 0 -- -- 40
2017-08-17 00:00:00 27.2 5 Noroeste 11 Oeste 0 -- -- 33
2017-08-16 23:00:00 28.2 3 Noroeste 12 Oeste 0 -- -- 31
2017-08-16 22:00:00 30.2 3 Noroeste 22 Oeste 0 -- -- 34
2017-08-16 21:00:00 33.5 13 Sudoeste 26 Sudoeste 0 -- -- 29
2017-08-16 20:00:00 37.1 16 Sudoeste 29 Sudoeste 0 -- -- 23
2017-08-16 19:00:00 39.4 13 Sudoeste 24 Sudoeste 0 -- -- 18
2017-08-16 18:00:00 39.7 11 Sudoeste 22 Sudoeste 0 -- -- 15
2017-08-16 17:00:00 39.1 7 Oeste 26 Oeste 0 -- -- 14
2017-08-16 16:00:00 38.7 14 Oeste 25 Oeste 0 -- -- 16
2017-08-16 15:00:00 37.7 8 Noroeste 18 Noroeste 0 -- -- 18
2017-08-16 14:00:00 36.2 4 Sur 12 Oeste 0 -- -- 17
2017-08-16 13:00:00 34.2 3 Norte 10 Este 0 -- -- 18
2017-08-16 12:00:00 32.1 2 Este 12 Sudeste 0 -- -- 25
2017-08-16 11:00:00 29.2 6 Nordeste 10 Este 0 -- -- 33
2017-08-16 10:00:00 25.4 0 Calma 9 Oeste 0 -- -- 43
2017-08-16 09:00:00 19.9 5 Noroeste 9 Noroeste 0 -- -- 58
2017-08-16 08:00:00 17.6 4 Noroeste 7 Oeste 0 -- -- 62
2017-08-16 07:00:00 17.5 0 Calma 6 Noroeste 0 -- -- 63
2017-08-16 06:00:00 17.8 2 Noroeste 8 Noroeste 0 -- -- 63
2017-08-16 05:00:00 18.4 0 Calma 10 Sudeste 0 -- -- 71
2017-08-16 04:00:00 19.5 2 Noroeste 4 Noroeste 0 -- -- 64
2017-08-16 03:00:00 19.8 0 Calma 6 Noroeste 0 -- -- 67
2017-08-16 02:00:00 21.2 0 Calma 6 Sudeste 0 -- -- 69
2017-08-16 01:00:00 22.6 5 Sudeste 10 Sudeste 0 -- -- 65
2017-08-16 00:00:00 24.9 0 Calma 7 Noroeste 0 -- -- 57
2017-08-15 23:00:00 26.9 3 Noroeste 6 Noroeste 0 -- -- 50
2017-08-15 22:00:00 29.5 5 Noroeste 15 Noroeste 0 -- -- 41
2017-08-15 21:00:00 32 7 Noroeste 30 Oeste 0 -- -- 37
2017-08-15 20:00:00 35.4 17 Oeste 32 Oeste 0 -- -- 29
2017-08-15 19:00:00 38.2 16 Oeste 30 Oeste 0 -- -- 23
2017-08-15 18:00:00 38.7 12 Oeste 26 Oeste 0 -- -- 24
2017-08-15 17:00:00 38.1 9 Oeste 19 Noroeste 0 -- -- 27
2017-08-15 16:00:00 36.9 10 Oeste 25 Oeste 0 -- -- 29
2017-08-15 15:00:00 35.7 9 Oeste 25 Oeste 0 -- -- 35
2017-08-15 14:00:00 33.8 9 Oeste 20 Oeste 0 -- -- 38
2017-08-15 13:00:00 32.1 8 Oeste 18 Oeste 0 -- -- 43
2017-08-15 12:00:00 30 10 Oeste 18 Oeste 0 -- -- 48
2017-08-15 11:00:00 27.9 9 Oeste 18 Oeste 0 -- -- 56
2017-08-15 10:00:00 24.4 2 Norte 6 Norte 0 -- -- 66
2017-08-15 09:00:00 20 2 Noroeste 5 Noroeste 0 -- -- 82
2017-08-15 08:00:00 18.3 0 Calma 5 Noroeste 0 -- -- 86
2017-08-15 07:00:00 18.7 3 Noroeste 4 Norte 0 -- -- 84
2017-08-15 06:00:00 19.5 2 Oeste 6 Norte 0 -- -- 82
2017-08-15 05:00:00 20.7 3 Noroeste 6 Norte 0 -- -- 83
2017-08-15 04:00:00 21.6 2 Oeste 5 Sur 0 -- -- 80
2017-08-15 03:00:00 22.3 2 Oeste 6 Sur 0 -- -- 78
2017-08-15 02:00:00 22.7 0 Calma 9 Oeste 0 -- -- 77
2017-08-15 01:00:00 23.6 4 Oeste 10 Sudoeste 0 -- -- 74
2017-08-15 00:00:00 24.5 6 Oeste 11 Oeste 0 -- -- 71
2017-08-14 23:00:00 25.5 10 Oeste 21 Oeste 0 -- -- 68
2017-08-14 22:00:00 27.1 13 Oeste 25 Oeste 0 -- -- 62
2017-08-14 21:00:00 30.4 17 Oeste 28 Oeste 0 -- -- 50
2017-08-14 20:00:00 33.8 17 Oeste 30 Oeste 0 -- -- 39
2017-08-14 19:00:00 35.8 16 Oeste 30 Oeste 0 -- -- 34
2017-08-14 18:00:00 36.6 19 Sudoeste 27 Oeste 0 -- -- 32
2017-08-14 17:00:00 36.9 9 Oeste 19 Sudoeste 0 -- -- 29
2017-08-14 16:00:00 36 6 Este 19 Sudeste 0 -- -- 28
2017-08-14 15:00:00 34.8 6 Este 17 Este 0 -- -- 30
2017-08-14 14:00:00 33.8 4 Este 19 Este 0 -- -- 33
2017-08-14 13:00:00 31.6 4 Norte 23 Este 0 -- -- 39
2017-08-14 12:00:00 30.1 8 Nordeste 20 Nordeste 0 -- -- 46
2017-08-14 11:00:00 28.4 11 Nordeste 19 Nordeste 0 -- -- 48
2017-08-14 10:00:00 25.4 7 Nordeste 17 Nordeste 0 -- -- 59
2017-08-14 09:00:00 20.9 2 Noroeste 7 Nordeste 0 -- -- 77
2017-08-14 08:00:00 17.5 5 Noroeste 8 Oeste 0 -- -- 82
2017-08-14 07:00:00 18.2 0 Calma 4 Oeste 0 -- -- 83
2017-08-14 06:00:00 18.9 0 Calma 4 Noroeste 0 -- -- 78
2017-08-14 05:00:00 20 3 Noroeste 6 Norte 0 -- -- 77
2017-08-14 04:00:00 21.4 4 Norte 7 Norte 0 -- -- 74
2017-08-14 03:00:00 22.5 3 Norte 12 Noroeste 0 -- -- 71
2017-08-14 02:00:00 23.1 4 Norte 11 Oeste 0 -- -- 70
2017-08-14 01:00:00 23.7 6 Noroeste 9 Oeste 0 -- -- 67
2017-08-14 00:00:00 24.8 6 Noroeste 22 Oeste 0 -- -- 63
2017-08-13 23:00:00 26 11 Oeste 21 Oeste 0 -- -- 59
2017-08-13 22:00:00 28 12 Oeste 24 Oeste 0 -- -- 51
2017-08-13 21:00:00 31 12 Oeste 28 Oeste 0 -- -- 42
2017-08-13 20:00:00 33.9 16 Oeste 31 Oeste 0 -- -- 36
2017-08-13 19:00:00 36.5 18 Oeste 28 Oeste 0 -- -- 31
2017-08-13 18:00:00 37.1 10 Sudeste 21 Sur 0 -- -- 23
2017-08-13 17:00:00 36.9 4 Sudeste 18 Este 0 -- -- 20
2017-08-13 16:00:00 36.7 11 Este 19 Este 0 -- -- 22
2017-08-13 15:00:00 35.4 5 Este 17 Sudeste 0 -- -- 23
2017-08-13 14:00:00 34.3 8 Este 19 Este 0 -- -- 27
2017-08-13 13:00:00 32.3 9 Este 21 Nordeste 0 -- -- 32
2017-08-13 12:00:00 30.5 10 Nordeste 19 Este 0 -- -- 37
2017-08-13 11:00:00 28 12 Nordeste 23 Nordeste 0 -- -- 44
2017-08-13 10:00:00 25.4 9 Nordeste 18 Norte 0 -- -- 50
2017-08-13 09:00:00 22 5 Nordeste 13 Nordeste 0 -- -- 61
2017-08-13 08:00:00 17.8 0 Calma 4 Sudoeste 0 -- -- 76
2017-08-13 07:00:00 18.3 2 Oeste 7 Noroeste 0 -- -- 75
2017-08-13 06:00:00 19.2 3 Noroeste 6 Oeste 0 -- -- 71
2017-08-13 05:00:00 20 2 Noroeste 6 Norte 0 -- -- 67
2017-08-13 04:00:00 21.3 2 Noroeste 13 Noroeste 0 -- -- 65
2017-08-13 03:00:00 22.2 6 Noroeste 12 Noroeste 0 -- -- 63
2017-08-13 02:00:00 22.8 3 Nordeste 12 Noroeste 0 -- -- 61
2017-08-13 01:00:00 24.1 4 Noroeste 10 Noroeste 0 -- -- 56
2017-08-13 00:00:00 25.1 6 Oeste 20 Oeste 0 -- -- 54
2017-08-12 23:00:00 26.5 12 Noroeste 19 Oeste 0 -- -- 52
2017-08-12 22:00:00 29.1 11 Oeste 19 Oeste 0 -- -- 41
2017-08-12 21:00:00 32.2 10 Oeste 23 Sudoeste 0 -- -- 34
2017-08-12 20:00:00 34.6 12 Oeste 27 Oeste 0 -- -- 32
2017-08-12 19:00:00 37.1 5 Sur 17 Sudoeste 0 -- -- 25
2017-08-12 18:00:00 36.4 8 Sudeste 27 Sudeste 0 -- -- 25
2017-08-12 17:00:00 36.5 9 Sur 22 Sudeste 0 -- -- 25
2017-08-12 16:00:00 35.6 10 Este 23 Sudeste 0 -- -- 27
2017-08-12 15:00:00 34.7 8 Sudeste 21 Este 0 -- -- 28
2017-08-12 14:00:00 33 7 Nordeste 22 Este 0 -- -- 34
2017-08-12 13:00:00 31.7 12 Nordeste 23 Este 0 -- -- 35
2017-08-12 12:00:00 30.1 15 Este 25 Este 0 -- -- 39
2017-08-12 11:00:00 28 14 Este 23 Este 0 -- -- 48
2017-08-12 10:00:00 24.8 5 Norte 13 Nordeste 0 -- -- 57
2017-08-12 09:00:00 22.1 4 Norte 12 Nordeste 0 -- -- 64
2017-08-12 08:00:00 18.7 5 Noroeste 9 Noroeste 0 -- -- 76
2017-08-12 07:00:00 18.3 5 Noroeste 8 Noroeste 0 -- -- 78
2017-08-12 06:00:00 19.5 0 Calma 8 Norte 0 -- -- 75
2017-08-12 05:00:00 20.3 3 Norte 8 Noroeste 0 -- -- 73
2017-08-12 04:00:00 21 3 Noroeste 9 Noroeste 0 -- -- 69
2017-08-12 03:00:00 22.3 3 Noroeste 12 Noroeste 0 -- -- 67
2017-08-12 02:00:00 24.1 7 Noroeste 13 Oeste 0 -- -- 62
2017-08-12 01:00:00 24.3 6 Noroeste 12 Noroeste 0 -- -- 63
2017-08-12 00:00:00 25.2 3 Noroeste 10 Noroeste 0 -- -- 61
2017-08-11 23:00:00 26.7 4 Oeste 19 Oeste 0 -- -- 57
2017-08-11 22:00:00 28.2 13 Oeste 24 Oeste 0 -- -- 53
2017-08-11 21:00:00 31.6 15 Oeste 26 Oeste 0 -- -- 44
2017-08-11 20:00:00 35.3 9 Este 22 Este 0 -- -- 32
2017-08-11 19:00:00 35.9 12 Este 28 Este 0 -- -- 28
2017-08-11 18:00:00 35.8 10 Nordeste 27 Este 0 -- -- 30
2017-08-11 17:00:00 36 16 Este 39 Este 0 -- -- 31
2017-08-11 16:00:00 35.2 14 Este 33 Este 0 -- -- 35
2017-08-11 15:00:00 33.9 18 Nordeste 45 Este 0 -- -- 39
2017-08-11 14:00:00 33 19 Este 38 Este 0 -- -- 43
2017-08-11 13:00:00 31.6 19 Este 35 Este 0 -- -- 47
2017-08-11 12:00:00 29.6 17 Nordeste 32 Este 0 -- -- 54
2017-08-11 11:00:00 27.3 19 Este 28 Este 0 -- -- 60
2017-08-11 10:00:00 24.7 12 Nordeste 24 Nordeste 0 -- -- 67
2017-08-11 09:00:00 21.8 8 Nordeste 17 Norte 0 -- -- 72
2017-08-11 08:00:00 19.8 4 Noroeste 16 Norte 0 -- -- 73
2017-08-11 07:00:00 18.6 3 Noroeste 9 Noroeste 0 -- -- 86
2017-08-11 06:00:00 19.2 0 Calma 6 Norte 0 -- -- 81
2017-08-11 05:00:00 19.7 2 Noroeste 9 Noroeste 0 -- -- 83
2017-08-11 04:00:00 20.6 3 Noroeste 9 Oeste 0 -- -- 81
2017-08-11 03:00:00 21.7 3 Oeste 9 Oeste 0 -- -- 77
2017-08-11 02:00:00 22.2 4 Oeste 9 Oeste 0 -- -- 72
2017-08-11 01:00:00 23.1 6 Oeste 12 Oeste 0 -- -- 69
2017-08-11 00:00:00 24.6 6 Oeste 10 Noroeste 0 -- -- 64
2017-08-10 23:00:00 26.2 5 Oeste 15 Oeste 0 -- -- 59
2017-08-10 22:00:00 28 5 Oeste 26 Oeste 0 -- -- 46
2017-08-10 21:00:00 31.2 15 Oeste 27 Oeste 0 -- -- 35
2017-08-10 20:00:00 34.5 8 Sudeste 17 Este 0 -- -- 23
2017-08-10 19:00:00 35 9 Sudeste 22 Este 0 -- -- 23
2017-08-10 18:00:00 35 8 Este 19 Sudeste 0 -- -- 22
2017-08-10 17:00:00 34.7 12 Este 28 Este 0 -- -- 22
2017-08-10 16:00:00 34.3 9 Norte 26 Este 0 -- -- 26
2017-08-10 15:00:00 33.8 15 Este 30 Este 0 -- -- 29
2017-08-10 14:00:00 32.1 14 Nordeste 28 Este 0 -- -- 34
2017-08-10 13:00:00 30.2 18 Este 32 Este 0 -- -- 38
2017-08-10 12:00:00 28.1 17 Nordeste 32 Este 0 -- -- 39
2017-08-10 11:00:00 26.4 19 Este 31 Nordeste 0 -- -- 40
2017-08-10 10:00:00 23.8 14 Nordeste 22 Este 0 -- -- 45
2017-08-10 09:00:00 18.8 4 Este 12 Nordeste 0 -- -- 62
2017-08-10 08:00:00 14 0 Calma 6 Oeste 0 -- -- 78
2017-08-10 07:00:00 13.8 3 Noroeste 8 Noroeste 0 -- -- 77
2017-08-10 06:00:00 14.8 3 Sudoeste 6 Nordeste 0 -- -- 69
2017-08-10 05:00:00 15.4 0 Calma 5 Noroeste 0 -- -- 69
2017-08-10 04:00:00 17.1 3 Noroeste 6 Noroeste 0 -- -- 71
2017-08-10 03:00:00 17.9 2 Noroeste 6 Noroeste 0 -- -- 68
2017-08-10 02:00:00 19.3 0 Calma 7 Norte 0 -- -- 58
2017-08-10 01:00:00 21.4 2 Noroeste 12 Norte 0 -- -- 50
2017-08-10 00:00:00 22.9 5 Norte 10 Noroeste 0 -- -- 42
2017-08-09 23:00:00 24.2 5 Norte 17 Oeste 0 -- -- 40
2017-08-09 22:00:00 25.9 13 Oeste 23 Oeste 0 -- -- 39
2017-08-09 21:00:00 28.4 13 Sudoeste 30 Sudoeste 0 -- -- 36
2017-08-09 20:00:00 29.7 15 Sudoeste 35 Sudoeste 0 -- -- 36
2017-08-09 19:00:00 32.4 20 Sudoeste 36 Oeste 0 -- -- 30
2017-08-09 18:00:00 33.8 19 Oeste 37 Oeste 0 -- -- 28
2017-08-09 17:00:00 34.3 14 Oeste 27 Oeste 0 -- -- 26
2017-08-09 16:00:00 33.2 8 Oeste 23 Noroeste 0 -- -- 26
2017-08-09 15:00:00 32.1 8 Norte 20 Sudoeste 0 -- -- 30
2017-08-09 14:00:00 31 5 Oeste 15 Sur 0 -- -- 31
2017-08-09 13:00:00 28.8 4 Sur 15 Sudeste 0 -- -- 35
2017-08-09 12:00:00 27.2 6 Sudeste 14 Sudeste 0 -- -- 38
2017-08-09 11:00:00 24.8 2 Noroeste 9 Oeste 0 -- -- 42
2017-08-09 10:00:00 21.4 6 Noroeste 12 Noroeste 0 -- -- 51
2017-08-09 09:00:00 18.2 5 Noroeste 13 Noroeste 0 -- -- 60
2017-08-09 08:00:00 15.8 4 Noroeste 10 Noroeste 0 -- -- 66
2017-08-09 07:00:00 16.8 7 Noroeste 12 Noroeste 0 -- -- 63
2017-08-09 06:00:00 17.8 4 Noroeste 12 Noroeste 0 -- -- 58
2017-08-09 05:00:00 18.3 8 Noroeste 14 Noroeste 0 -- -- 57
2017-08-09 04:00:00 19.7 5 Noroeste 10 Noroeste 0 -- -- 53
2017-08-09 03:00:00 21.1 5 Noroeste 13 Noroeste 0 -- -- 48
2017-08-09 02:00:00 22.5 8 Noroeste 14 Oeste 0 -- -- 36
2017-08-09 01:00:00 21.6 2 Noroeste 8 Norte 0 -- -- 35
2017-08-09 00:00:00 23.4 3 Noroeste 9 Norte 0 -- -- 31
2017-08-08 23:00:00 25.4 3 Noroeste 10 Noroeste 0 -- -- 26
2017-08-08 22:00:00 28.9 9 Noroeste 22 Noroeste 0 -- -- 21
2017-08-08 21:00:00 32.8 15 Noroeste 32 Oeste 0 -- -- 18
2017-08-08 20:00:00 34.8 20 Noroeste 36 Oeste 0 -- -- 17
2017-08-08 19:00:00 35.9 22 Oeste 34 Oeste 0 -- -- 16
2017-08-08 18:00:00 36.7 21 Oeste 35 Noroeste 0 -- -- 15
2017-08-08 17:00:00 36.7 10 Oeste 36 Oeste 0 -- -- 14
2017-08-08 16:00:00 36.3 14 Oeste 35 Noroeste 0 -- -- 15
2017-08-08 15:00:00 35.1 10 Noroeste 27 Noroeste 0 -- -- 18
2017-08-08 14:00:00 33.2 9 Noroeste 21 Oeste 0 -- -- 22
2017-08-08 13:00:00 31.1 4 Este 16 Oeste 0 -- -- 26
2017-08-08 12:00:00 29 5 Nordeste 14 Noroeste 0 -- -- 30
2017-08-08 11:00:00 26.5 5 Norte 15 Norte 0 -- -- 35
2017-08-08 10:00:00 24.1 9 Norte 17 Norte 0 -- -- 40
2017-08-08 09:00:00 19.9 6 Noroeste 10 Noroeste 0 -- -- 52
2017-08-08 08:00:00 16.9 0 Calma 6 Noroeste 0 -- -- 50
2017-08-08 07:00:00 19.4 2 Norte 8 Noroeste 0 -- -- 43
2017-08-08 06:00:00 21.3 0 Calma 12 Noroeste 0 -- -- 40
2017-08-08 05:00:00 23.3 8 Noroeste 16 Noroeste 0 -- -- 35
2017-08-08 04:00:00 24.5 8 Noroeste 18 Noroeste 0 -- -- 36
2017-08-08 03:00:00 25.9 7 Noroeste 21 Noroeste 0 -- -- 33
2017-08-08 02:00:00 26.9 10 Noroeste 20 Noroeste 0 -- -- 29
2017-08-08 01:00:00 26.7 13 Noroeste 18 Noroeste 0 -- -- 28
2017-08-08 00:00:00 26.5 4 Noroeste 10 Norte 0 -- -- 30
2017-08-07 23:00:00 27.8 5 Norte 15 Oeste 0 -- -- 28
2017-08-07 22:00:00 30.4 6 Noroeste 17 Oeste 0 -- -- 25
2017-08-07 21:00:00 34 12 Oeste 26 Oeste 0 -- -- 22
2017-08-07 20:00:00 37.2 19 Oeste 31 Oeste 0 -- -- 18
2017-08-07 19:00:00 39.2 21 Oeste 32 Oeste 0 -- -- 15
2017-08-07 18:00:00 40.4 16 Oeste 27 Oeste 0 -- -- 13
2017-08-07 17:00:00 40.6 13 Oeste 27 Oeste 0 -- -- 17
2017-08-07 16:00:00 39.6 9 Sudoeste 27 Oeste 0 -- -- 20
2017-08-07 15:00:00 37.8 13 Oeste 22 Oeste 0 -- -- 22
2017-08-07 14:00:00 37.1 11 Oeste 25 Oeste 0 -- -- 25
2017-08-07 13:00:00 34.5 6 Noroeste 18 Oeste 0 -- -- 32
2017-08-07 12:00:00 32.1 6 Sudoeste 18 Sur 0 -- -- 35
2017-08-07 11:00:00 30.1 8 Sur 13 Sudoeste 0 -- -- 39
2017-08-07 10:00:00 26.5 3 Oeste 13 Noroeste 0 -- -- 43
2017-08-07 09:00:00 22.3 5 Sudeste 11 Sudeste 0 -- -- 53
2017-08-07 08:00:00 20.1 5 Noroeste 9 Noroeste 0 -- -- 57
2017-08-07 07:00:00 22.3 3 Noroeste 17 Noroeste 0 -- -- 52
2017-08-07 06:00:00 23.5 9 Oeste 18 Oeste 0 -- -- 53
2017-08-07 05:00:00 22.9 4 Sur 18 Sudeste 0 -- -- 52
2017-08-07 04:00:00 23.3 3 Sur 8 Sur 0 -- -- 43
2017-08-07 03:00:00 25.5 0 Calma 21 Sudoeste 0 -- -- 41
2017-08-07 02:00:00 26.6 8 Este 15 Este 0 -- -- 33
2017-08-07 01:00:00 27 4 Noroeste 18 Oeste 0 -- -- 32
2017-08-07 00:00:00 28.6 8 Noroeste 19 Oeste 0 -- -- 25
2017-08-06 23:00:00 29.1 5 Noroeste 22 Oeste 0 -- -- 23
2017-08-06 22:00:00 30 9 Noroeste 19 Sudoeste 0 -- -- 26
2017-08-06 21:00:00 32.2 10 Oeste 32 Oeste 0 -- -- 25
2017-08-06 20:00:00 36.7 19 Oeste 32 Oeste 0 -- -- 23
2017-08-06 19:00:00 40.5 21 Oeste 31 Oeste 0 -- -- 19
2017-08-06 18:00:00 41.7 14 Oeste 23 Oeste 0 -- -- 15
2017-08-06 17:00:00 41.5 11 Sudoeste 24 Oeste 0 -- -- 15
2017-08-06 16:00:00 40.6 13 Oeste 30 Oeste 0 -- -- 18
2017-08-06 15:00:00 39.6 13 Oeste 24 Noroeste 0 -- -- 20
2017-08-06 14:00:00 37.6 6 Noroeste 15 Sur 0 -- -- 23
2017-08-06 13:00:00 35.5 4 Nordeste 12 Este 0 -- -- 24
2017-08-06 12:00:00 33.8 5 Este 11 Este 0 -- -- 27
2017-08-06 11:00:00 30.8 7 Nordeste 15 Este 0 -- -- 33
2017-08-06 10:00:00 27.8 2 Norte 6 Norte 0 -- -- 37
2017-08-06 09:00:00 22.1 3 Noroeste 6 Oeste 0 -- -- 53
2017-08-06 08:00:00 19.1 6 Noroeste 11 Oeste 0 -- -- 57
2017-08-06 07:00:00 19.4 2 Noroeste 10 Noroeste 0 -- -- 55
2017-08-06 06:00:00 20.3 5 Noroeste 8 Noroeste 0 -- -- 53
2017-08-06 05:00:00 21 0 Calma 5 Norte 0 -- -- 51
2017-08-06 04:00:00 22.7 0 Calma 5 Oeste 0 -- -- 50
2017-08-06 03:00:00 25.2 4 Noroeste 8 Noroeste 0 -- -- 43
2017-08-06 02:00:00 28.7 4 Noroeste 15 Noroeste 0 -- -- 36
2017-08-06 01:00:00 28.6 5 Noroeste 14 Noroeste 0 -- -- 37
2017-08-06 00:00:00 28.1 3 Noroeste 7 Norte 0 -- -- 44
2017-08-05 23:00:00 29.9 2 Noroeste 19 Oeste 0 -- -- 42
2017-08-05 22:00:00 31.7 11 Noroeste 27 Oeste 0 -- -- 38
2017-08-05 21:00:00 34.9 16 Oeste 36 Sudoeste 0 -- -- 33
2017-08-05 20:00:00 38.4 18 Oeste 33 Sudoeste 0 -- -- 28
2017-08-05 19:00:00 40.7 19 Oeste 35 Oeste 0 -- -- 26
2017-08-05 18:00:00 40.9 18 Sudoeste 32 Sudoeste 0 -- -- 26
2017-08-05 17:00:00 41.3 17 Sudoeste 31 Sur 0 -- -- 27
2017-08-05 16:00:00 41.8 16 Sudoeste 30 Oeste 0 -- -- 26
2017-08-05 15:00:00 41.2 8 Oeste 22 Oeste 0 -- -- 23
2017-08-05 14:00:00 39.4 7 Sur 17 Sur 0 -- -- 29
2017-08-05 13:00:00 37.3 7 Sur 17 Sudeste 0 -- -- 30
2017-08-05 12:00:00 35.4 5 Sudeste 10 Este 0 -- -- 34
2017-08-05 11:00:00 33.6 3 Este 8 Este 0 -- -- 35
2017-08-05 10:00:00 31.1 0 Calma 5 Oeste 0 -- -- 40
2017-08-05 09:00:00 25.1 2 Noroeste 7 Oeste 0 -- -- 53
2017-08-05 08:00:00 21.1 5 Noroeste 7 Oeste 0 -- -- 63
2017-08-05 07:00:00 21.6 2 Oeste 4 Noroeste 0 -- -- 61
2017-08-05 06:00:00 23 2 Sudeste 4 Oeste 0 -- -- 60
2017-08-05 05:00:00 24.3 3 Oeste 4 Oeste 0 -- -- 55
2017-08-05 04:00:00 25.5 0 Calma 4 Noroeste 0 -- -- 54
2017-08-05 03:00:00 26.3 0 Calma 4 Noroeste 0 -- -- 51
2017-08-05 02:00:00 27.7 5 Noroeste 7 Noroeste 0 -- -- 47
2017-08-05 01:00:00 29.1 0 Calma 12 Noroeste 0 -- -- 45
2017-08-05 00:00:00 31.1 6 Noroeste 12 Oeste 0 -- -- 39
2017-08-04 23:00:00 32 3 Noroeste 9 Noroeste 0 -- -- 38
2017-08-04 22:00:00 34.5 9 Oeste 24 Oeste 0 -- -- 32
2017-08-04 21:00:00 37.7 18 Oeste 30 Oeste 0 -- -- 29
2017-08-04 20:00:00 40.5 22 Oeste 32 Oeste 0 -- -- 26
2017-08-04 19:00:00 42.3 17 Oeste 30 Oeste 0 -- -- 25
2017-08-04 18:00:00 42.7 16 Sudoeste 29 Sudoeste 0 -- -- 24
2017-08-04 17:00:00 42.7 5 Sudoeste 22 Oeste 0 -- -- 22
2017-08-04 16:00:00 41.8 6 Noroeste 18 Oeste 0 -- -- 24
2017-08-04 15:00:00 40.7 6 Sur 18 Sudeste 0 -- -- 25
2017-08-04 14:00:00 40 9 Este 18 Sudeste 0 -- -- 27
2017-08-04 13:00:00 38.7 8 Este 23 Nordeste 0 -- -- 30
2017-08-04 12:00:00 36.2 10 Nordeste 20 Nordeste 0 -- -- 35
2017-08-04 11:00:00 33.6 9 Nordeste 16 Este 0 -- -- 40
2017-08-04 10:00:00 30.7 6 Nordeste 12 Nordeste 0 -- -- 46
2017-08-04 09:00:00 24.1 5 Noroeste 8 Oeste 0 -- -- 55
2017-08-04 08:00:00 19.5 3 Noroeste 7 Oeste 0 -- -- 64
2017-08-04 07:00:00 19.5 0 Calma 3 Norte 0 -- -- 58
2017-08-04 06:00:00 20.2 0 Calma 6 Noroeste 0 -- -- 56
2017-08-04 05:00:00 20.9 2 Noroeste 5 Noroeste 0 -- -- 52
2017-08-04 04:00:00 22.4 3 Noroeste 10 Noroeste 0 -- -- 47
2017-08-04 03:00:00 23.7 0 Calma 7 Norte 0 -- -- 43
2017-08-04 02:00:00 24.5 3 Norte 8 Noroeste 0 -- -- 42
2017-08-04 01:00:00 25.4 2 Noroeste 6 Oeste 0 -- -- 41
2017-08-04 00:00:00 27 2 Noroeste 14 Noroeste 0 -- -- 39
2017-08-03 23:00:00 29 4 Noroeste 13 Noroeste 0 -- -- 35
2017-08-03 22:00:00 31.9 6 Noroeste 22 Sudoeste 0 -- -- 31
2017-08-03 21:00:00 36.2 14 Oeste 27 Oeste 0 -- -- 24
2017-08-03 20:00:00 39.6 15 Oeste 24 Sudoeste 0 -- -- 20
2017-08-03 19:00:00 40.8 12 Oeste 19 Oeste 0 -- -- 17
2017-08-03 18:00:00 41 9 Oeste 20 Noroeste 0 -- -- 17
2017-08-03 17:00:00 40.7 9 Oeste 19 Oeste 0 -- -- 17
2017-08-03 16:00:00 39.6 4 Nordeste 18 Oeste 0 -- -- 18
2017-08-03 15:00:00 38.6 7 Sur 15 Sur 0 -- -- 20
2017-08-03 14:00:00 37.4 6 Sur 12 Sudeste 0 -- -- 20
2017-08-03 13:00:00 35.3 6 Sudeste 13 Este 0 -- -- 22
2017-08-03 12:00:00 32.9 4 Sudeste 9 Este 0 -- -- 24
2017-08-03 11:00:00 30 5 Nordeste 11 Nordeste 0 -- -- 27
2017-08-03 10:00:00 25.9 3 Noroeste 9 Noroeste 0 -- -- 41
2017-08-03 09:00:00 20.5 4 Noroeste 6 Noroeste 0 -- -- 52
2017-08-03 08:00:00 16.3 3 Noroeste 4 Noroeste 0 -- -- 60
2017-08-03 07:00:00 17.2 0 Calma 6 Noroeste 0 -- -- 57
2017-08-03 06:00:00 18.4 0 Calma 5 Noroeste 0 -- -- 57
2017-08-03 05:00:00 19.7 3 Noroeste 5 Noroeste 0 -- -- 53
2017-08-03 04:00:00 20.8 2 Noroeste 7 Noroeste 0 -- -- 50
2017-08-03 03:00:00 21.2 3 Noroeste 8 Noroeste 0 -- -- 47
2017-08-03 02:00:00 22.2 3 Noroeste 10 Noroeste 0 -- -- 43
2017-08-03 01:00:00 22.9 5 Norte 9 Norte 0 -- -- 45
2017-08-03 00:00:00 24.8 7 Noroeste 13 Noroeste 0 -- -- 38
2017-08-02 23:00:00 26.7 6 Noroeste 15 Oeste 0 -- -- 33
2017-08-02 22:00:00 29.1 9 Noroeste 25 Oeste 0 -- -- 29
2017-08-02 21:00:00 33.1 16 Oeste 30 Oeste 0 -- -- 24
2017-08-02 20:00:00 35.6 22 Oeste 31 Oeste 0 -- -- 23
2017-08-02 19:00:00 37.2 5 Sudeste 22 Nordeste 0 -- -- 19
2017-08-02 18:00:00 37.3 7 Sur 18 Oeste 0 -- -- 20
2017-08-02 17:00:00 37 8 Noroeste 19 Noroeste 0 -- -- 20
2017-08-02 16:00:00 36.3 6 Nordeste 24 Este 0 -- -- 23
2017-08-02 15:00:00 35.3 8 Nordeste 17 Norte 0 -- -- 23
2017-08-02 14:00:00 34.4 8 Nordeste 15 Este 0 -- -- 26
2017-08-02 13:00:00 32.8 5 Sudoeste 11 Nordeste 0 -- -- 27
2017-08-02 12:00:00 30.5 6 Este 16 Este 0 -- -- 30
2017-08-02 11:00:00 27.9 6 Nordeste 11 Nordeste 0 -- -- 33
2017-08-02 10:00:00 24.9 4 Nordeste 6 Este 0 -- -- 40
2017-08-02 09:00:00 19 0 Calma 7 Noroeste 0 -- -- 56
2017-08-02 08:00:00 15.3 2 Norte 4 Norte 0 -- -- 65
2017-08-02 07:00:00 15.4 0 Calma 5 Noroeste 0 -- -- 64
2017-08-02 06:00:00 16.3 2 Norte 6 Noroeste 0 -- -- 59
2017-08-02 05:00:00 17.3 2 Noroeste 6 Oeste 0 -- -- 58
2017-08-02 04:00:00 18.4 0 Calma 6 Norte 0 -- -- 53
2017-08-02 03:00:00 19.2 3 Noroeste 8 Noroeste 0 -- -- 49
2017-08-02 02:00:00 18.6 0 Calma 6 Noroeste 0 -- -- 57
2017-08-02 01:00:00 20 2 Noroeste 3 Noroeste 0 -- -- 54
2017-08-02 00:00:00 21.9 0 Calma 9 Sudoeste 0 -- -- 52
2017-08-01 23:00:00 24.4 3 Oeste 13 Sur 0 -- -- 45
2017-08-01 22:00:00 26.1 5 Sur 22 Oeste 0 -- -- 41
2017-08-01 21:00:00 28.9 15 Sudoeste 30 Oeste 0 -- -- 35
2017-08-01 20:00:00 32.4 17 Oeste 30 Oeste 0 -- -- 31
2017-08-01 19:00:00 33.1 13 Sur 22 Sur 0 -- -- 29
2017-08-01 18:00:00 34.1 9 Sudoeste 27 Sur 0 -- -- 26
2017-08-01 17:00:00 33.5 10 Sudoeste 20 Sudoeste 0 -- -- 27
2017-08-01 16:00:00 32.9 8 Sudoeste 21 Oeste 0 -- -- 27
2017-08-01 15:00:00 31.9 10 Sudoeste 19 Sur 0 -- -- 30
2017-08-01 14:00:00 29.6 5 Sudeste 15 Oeste 0 -- -- 35
2017-08-01 13:00:00 27.3 3 Oeste 9 Norte 0 -- -- 39
2017-08-01 12:00:00 25.4 2 Noroeste 11 Noroeste 0 -- -- 47
2017-08-01 11:00:00 23.6 5 Oeste 9 Noroeste 0 -- -- 50
2017-08-01 10:00:00 22.2 3 Oeste 12 Norte 0 -- -- 55
2017-08-01 09:00:00 20.9 8 Noroeste 14 Noroeste 0 -- -- 59
2017-08-01 08:00:00 20.2 5 Noroeste 14 Norte 0 -- -- 62
2017-08-01 07:00:00 19.9 0 Calma 7 Oeste 0 -- -- 54
2017-08-01 06:00:00 19.7 4 Sudoeste 7 Oeste 0 -- -- 53
2017-08-01 05:00:00 20.9 5 Noroeste 9 Noroeste 0 -- -- 48
2017-08-01 04:00:00 21.1 0 Calma 9 Noroeste 0 -- -- 48
2017-08-01 03:00:00 21.9 2 Noroeste 8 Oeste 0 -- -- 44
2017-08-01 02:00:00 22.7 4 Noroeste 10 Noroeste 0 -- -- 44
2017-08-01 01:00:00 22.9 0 Calma 13 Sudeste 0 -- -- 54
2017-08-01 00:00:00 23.9 8 Sudeste 13 Sudeste 0 -- -- 51
2017-07-31 23:00:00 24.7 0 Calma 14 Oeste 0 -- -- 48
2017-07-31 22:00:00 25.2 4 Noroeste 21 Oeste 0 -- -- 44
2017-07-31 21:00:00 27.1 12 Oeste 29 Oeste 0 -- -- 42
2017-07-31 20:00:00 31.9 17 Oeste 31 Oeste 0 -- -- 33
2017-07-31 19:00:00 34.5 22 Oeste 36 Oeste 0 -- -- 25
2017-07-31 18:00:00 36.3 16 Oeste 28 Oeste 0 -- -- 18
2017-07-31 17:00:00 36 11 Oeste 28 Oeste 0 -- -- 19
2017-07-31 16:00:00 35.7 14 Oeste 27 Oeste 0 -- -- 18
2017-07-31 15:00:00 34.8 13 Oeste 31 Oeste 0 -- -- 23
2017-07-31 14:00:00 33.8 12 Sudoeste 23 Oeste 0 -- -- 30
2017-07-31 13:00:00 31.9 6 Sudoeste 18 Oeste 0 -- -- 36
2017-07-31 12:00:00 29.8 5 Sudoeste 14 Sudoeste 0 -- -- 43
2017-07-31 11:00:00 27.5 3 Sur 10 Sur 0 -- -- 49
2017-07-31 10:00:00 24.8 2 Sudoeste 6 Sudoeste 0 -- -- 59
2017-07-31 09:00:00 20.6 0 Calma 6 Oeste 0 -- -- 64
2017-07-31 08:00:00 15.9 2 Noroeste 7 Noroeste 0 -- -- 69
2017-07-31 07:00:00 16.7 0 Calma 6 Noroeste 0 -- -- 71
2017-07-31 06:00:00 17.5 0 Calma 5 Oeste 0 -- -- 71
2017-07-31 05:00:00 18 0 Calma 5 Noroeste 0 -- -- 69
2017-07-31 04:00:00 18.5 2 Noroeste 4 Noroeste 0 -- -- 63
2017-07-31 03:00:00 20.3 0 Calma 6 Sudeste 0 -- -- 66
2017-07-31 02:00:00 22.2 2 Sur 12 Sudeste 0 -- -- 63
2017-07-31 01:00:00 24 5 Oeste 10 Noroeste 0 -- -- 47
2017-07-31 00:00:00 26.4 0 Calma 14 Oeste 0 -- -- 46
2017-07-30 23:00:00 28.1 5 Oeste 9 Oeste 0 -- -- 41
2017-07-30 22:00:00 30.1 4 Noroeste 30 Sudoeste 0 -- -- 35
2017-07-30 21:00:00 33.8 12 Sudoeste 28 Oeste 0 -- -- 32
2017-07-30 20:00:00 36.7 16 Sudoeste 31 Sudoeste 0 -- -- 27
2017-07-30 19:00:00 38.2 18 Sudoeste 32 Sudoeste 0 -- -- 25
2017-07-30 18:00:00 38.6 19 Sudoeste 35 Sudoeste 0 -- -- 27
2017-07-30 17:00:00 38.2 20 Sur 33 Sur 0 -- -- 35
2017-07-30 16:00:00 38.4 13 Sur 24 Sudoeste 0 -- -- 30
2017-07-30 15:00:00 37.6 10 Sur 22 Sudeste 0 -- -- 32
2017-07-30 14:00:00 36.2 6 Sudoeste 17 Sudeste 0 -- -- 34
2017-07-30 13:00:00 34.7 4 Sur 12 Sur 0 -- -- 34
2017-07-30 12:00:00 33.2 5 Sur 11 Nordeste 0 -- -- 33
2017-07-30 11:00:00 30.3 2 Sudoeste 7 Nordeste 0 -- -- 41
2017-07-30 10:00:00 26.7 3 Noroeste 5 Norte 0 -- -- 53
2017-07-30 09:00:00 22.8 0 Calma 6 Noroeste 0 -- -- 61
2017-07-30 08:00:00 19.2 3 Oeste 13 Noroeste 0 -- -- 70
2017-07-30 07:00:00 19.1 0 Calma 8 Noroeste 0 -- -- 66
2017-07-30 06:00:00 19.2 3 Noroeste 7 Oeste 0 -- -- 65
2017-07-30 05:00:00 19.8 0 Calma 7 Oeste 0 -- -- 62
2017-07-30 04:00:00 20.5 4 Oeste 9 Oeste 0 -- -- 60
2017-07-30 03:00:00 22.1 0 Calma 7 Este 0 -- -- 56
2017-07-30 02:00:00 23.3 3 Sudeste 9 Sudeste 0 -- -- 53
2017-07-30 01:00:00 24.9 3 Norte 5 Nordeste 0 -- -- 50
2017-07-30 00:00:00 26.2 0 Calma 5 Noroeste 0 -- -- 44
2017-07-29 23:00:00 28.8 3 Noroeste 17 Oeste 0 -- -- 37
2017-07-29 22:00:00 30.8 8 Oeste 19 Oeste 0 -- -- 34
2017-07-29 21:00:00 33.6 12 Oeste 21 Oeste 0 -- -- 34
2017-07-29 20:00:00 36.3 14 Oeste 33 Sudoeste 0 -- -- 33
2017-07-29 19:00:00 38.7 18 Oeste 29 Oeste 0 -- -- 31
2017-07-29 18:00:00 39.6 17 Sudoeste 28 Sudoeste 0 -- -- 24
2017-07-29 17:00:00 39 15 Sur 30 Sudoeste 0 -- -- 27
2017-07-29 16:00:00 39.7 8 Oeste 23 Oeste 0 -- -- 25
2017-07-29 15:00:00 38.6 10 Oeste 22 Sudoeste 0 -- -- 21
2017-07-29 14:00:00 36.3 6 Oeste 19 Sudeste 0 -- -- 29
2017-07-29 13:00:00 34.7 7 Este 15 Sudeste 0 -- -- 34
2017-07-29 12:00:00 32.6 5 Este 8 Este 0 -- -- 36
2017-07-29 11:00:00 29.7 3 Nordeste 8 Este 0 -- -- 42
2017-07-29 10:00:00 26.5 0 Calma 5 Sudeste 0 -- -- 51
2017-07-29 09:00:00 21.1 2 Norte 6 Noroeste 0 -- -- 56
2017-07-29 08:00:00 16.2 0 Calma 8 Noroeste 0 -- -- 64
2017-07-29 07:00:00 16.3 0 Calma 4 Noroeste 0 -- -- 61
2017-07-29 06:00:00 17.2 0 Calma 4 Sudeste 0 -- -- 60
2017-07-29 05:00:00 18 0 Calma 3 Este 0 -- -- 57
2017-07-29 04:00:00 18.6 0 Calma 4 Norte 0 -- -- 53
2017-07-29 03:00:00 20.2 2 Sur 10 Sudeste 0 -- -- 50
2017-07-29 02:00:00 21.1 0 Calma 6 Oeste 0 -- -- 51
2017-07-29 01:00:00 23.4 3 Oeste 8 Norte 0 -- -- 41
2017-07-29 00:00:00 26.4 4 Norte 19 Noroeste 0 -- -- 36
2017-07-28 23:00:00 28.5 11 Oeste 23 Oeste 0 -- -- 30
2017-07-28 22:00:00 29.8 8 Noroeste 18 Oeste 0 -- -- 29
2017-07-28 21:00:00 33.3 11 Oeste 27 Oeste 0 -- -- 25
2017-07-28 20:00:00 36.6 19 Oeste 32 Sudoeste 0 -- -- 26
2017-07-28 19:00:00 39.8 18 Oeste 32 Sur 0 -- -- 23
2017-07-28 18:00:00 40.6 6 Noroeste 28 Oeste 0 -- -- 16
2017-07-28 17:00:00 40.2 6 Noroeste 23 Oeste 0 -- -- 16
2017-07-28 16:00:00 39.9 12 Oeste 25 Oeste 0 -- -- 18
2017-07-28 15:00:00 39 10 Oeste 25 Oeste 0 -- -- 19
2017-07-28 14:00:00 37.2 8 Sudoeste 18 Sudoeste 0 -- -- 24
2017-07-28 13:00:00 34.7 6 Oeste 15 Sudoeste 0 -- -- 30
2017-07-28 12:00:00 31.4 0 Calma 10 Noroeste 0 -- -- 35
2017-07-28 11:00:00 28.9 3 Norte 8 Oeste 0 -- -- 41
2017-07-28 10:00:00 25.6 0 Calma 4 Sudeste 0 -- -- 49
2017-07-28 09:00:00 20.8 0 Calma 6 Noroeste 0 -- -- 66
2017-07-28 08:00:00 16.8 3 Oeste 8 Noroeste 0 -- -- 75
2017-07-28 07:00:00 16.9 0 Calma 4 Noroeste 0 -- -- 73
2017-07-28 06:00:00 17.1 0 Calma 5 Noroeste 0 -- -- 69
2017-07-28 05:00:00 17.8 0 Calma 2 Noroeste 0 -- -- 65
2017-07-28 04:00:00 19 0 Calma 6 Sudeste 0 -- -- 64
2017-07-28 03:00:00 20.5 0 Calma 6 Sudeste 0 -- -- 59
2017-07-28 02:00:00 22.2 2 Sudeste 7 Norte 0 -- -- 55
2017-07-28 01:00:00 23 2 Noroeste 8 Norte 0 -- -- 52
2017-07-28 00:00:00 25.2 2 Noroeste 10 Noroeste 0 -- -- 45
2017-07-27 23:00:00 27.3 5 Noroeste 14 Oeste 0 -- -- 40
2017-07-27 22:00:00 30.4 9 Oeste 14 Oeste 0 -- -- 35
2017-07-27 21:00:00 34.5 10 Oeste 23 Oeste 0 -- -- 28
2017-07-27 20:00:00 36.8 16 Oeste 27 Oeste 0 -- -- 25
2017-07-27 19:00:00 38.7 15 Oeste 26 Oeste 0 -- -- 21
2017-07-27 18:00:00 38.8 17 Oeste 28 Sudoeste 0 -- -- 24
2017-07-27 17:00:00 39.1 17 Sudoeste 28 Sudoeste 0 -- -- 28
2017-07-27 16:00:00 38.5 9 Noroeste 23 Oeste 0 -- -- 26
2017-07-27 15:00:00 36.9 6 Sudoeste 15 Sudeste 0 -- -- 34
2017-07-27 14:00:00 34.4 7 Sudoeste 17 Sur 0 -- -- 41
2017-07-27 13:00:00 32.3 10 Sudoeste 18 Sudoeste 0 -- -- 45
2017-07-27 12:00:00 29.9 6 Sur 15 Oeste 0 -- -- 54
2017-07-27 11:00:00 27.1 5 Sur 14 Sudeste 0 -- -- 62
2017-07-27 10:00:00 23.3 0 Calma 4 Sudoeste 0 -- -- 79
2017-07-27 09:00:00 19.7 0 Calma 5 Sudoeste 0 -- -- 86
2017-07-27 08:00:00 18.4 0 Calma 4 Noroeste 0 -- -- 82
2017-07-27 07:00:00 17.8 0 Calma 3 Noroeste 0 -- -- 80
2017-07-27 06:00:00 19 2 Sudeste 5 Sur 0 -- -- 82
2017-07-27 05:00:00 19.1 2 Sudeste 12 Sudeste 0 -- -- 76
2017-07-27 04:00:00 19.6 0 Calma 3 Este 0 -- -- 71
2017-07-27 03:00:00 19.8 3 Sudeste 8 Noroeste 0 -- -- 71
2017-07-27 02:00:00 20.6 4 Noroeste 8 Noroeste 0 -- -- 67
2017-07-27 01:00:00 22.4 3 Noroeste 6 Noroeste 0 -- -- 62
2017-07-27 00:00:00 24.1 3 Norte 9 Noroeste 0 -- -- 58
2017-07-26 23:00:00 26.2 7 Noroeste 11 Noroeste 0 -- -- 51
2017-07-26 22:00:00 29.5 8 Oeste 12 Sudoeste 0 -- -- 41
2017-07-26 21:00:00 32.7 8 Sudoeste 21 Sudoeste 0 -- -- 36
2017-07-26 20:00:00 34.5 13 Oeste 22 Sudoeste 0 -- -- 33
2017-07-26 19:00:00 35.1 14 Oeste 25 Sudoeste 0 -- -- 33
2017-07-26 18:00:00 35.6 14 Oeste 26 Oeste 0 -- -- 34
2017-07-26 17:00:00 35.4 15 Oeste 28 Sudoeste 0 -- -- 37
2017-07-26 16:00:00 34.4 16 Sur 29 Sudoeste 0 -- -- 40
2017-07-26 15:00:00 33.6 12 Sudoeste 22 Sur 0 -- -- 41
2017-07-26 14:00:00 32 13 Sudoeste 26 Sur 0 -- -- 46
2017-07-26 13:00:00 29.8 10 Sudoeste 21 Noroeste 0 -- -- 54
2017-07-26 12:00:00 27.7 8 Sudoeste 19 Sudoeste 0 -- -- 61
2017-07-26 11:00:00 25.9 11 Sudoeste 21 Sudoeste 0 -- -- 69
2017-07-26 10:00:00 23.9 11 Sudoeste 19 Sudoeste 0 -- -- 77
2017-07-26 09:00:00 22.1 7 Sur 13 Sur 0 -- -- 86
2017-07-26 08:00:00 20.6 2 Sudoeste 6 Sur 0 -- -- 91
2017-07-26 07:00:00 19 0 Calma 6 Norte 0 -- -- 82
2017-07-26 06:00:00 16.8 3 Noroeste 8 Noroeste 0 -- -- 80
2017-07-26 05:00:00 17 3 Norte 8 Noroeste 0 -- -- 80
2017-07-26 04:00:00 18.1 2 Oeste 4 Oeste 0 -- -- 75
2017-07-26 03:00:00 19.1 0 Calma 5 Sur 0 -- -- 71
2017-07-26 02:00:00 20.6 2 Sur 8 Sur 0 -- -- 72
2017-07-26 01:00:00 22.1 4 Sur 8 Sudeste 0 -- -- 66
2017-07-26 00:00:00 23.1 4 Sur 11 Sudoeste 0 -- -- 62
2017-07-25 23:00:00 24.8 4 Sudoeste 7 Sudoeste 0 -- -- 55
2017-07-25 22:00:00 26.6 2 Noroeste 14 Oeste 0 -- -- 50
2017-07-25 21:00:00 29.3 9 Oeste 23 Sudoeste 0 -- -- 46
2017-07-25 20:00:00 32.3 14 Sudoeste 27 Sudoeste 0 -- -- 39
2017-07-25 19:00:00 35.3 16 Sudoeste 31 Sur 0 -- -- 33
2017-07-25 18:00:00 36.8 21 Sudoeste 34 Sudoeste 0 -- -- 29
2017-07-25 17:00:00 38.2 17 Sudoeste 27 Sudoeste 0 -- -- 27
2017-07-25 16:00:00 38.5 8 Sudoeste 23 Oeste 0 -- -- 28
2017-07-25 15:00:00 37.6 11 Sudoeste 22 Sudoeste 0 -- -- 27
2017-07-25 14:00:00 36.4 9 Sudeste 18 Sur 0 -- -- 28
2017-07-25 13:00:00 34.6 7 Sudeste 19 Sudeste 0 -- -- 29
2017-07-25 12:00:00 33.1 5 Sudeste 12 Este 0 -- -- 31
2017-07-25 11:00:00 30.9 6 Este 11 Nordeste 0 -- -- 36
2017-07-25 10:00:00 27.6 2 Este 4 Noroeste 0 -- -- 47
2017-07-25 09:00:00 22 3 Oeste 5 Noroeste 0 -- -- 62
2017-07-25 08:00:00 17.2 0 Calma 5 Noroeste 0 -- -- 70
2017-07-25 07:00:00 16.8 3 Noroeste 5 Noroeste 0 -- -- 66
2017-07-25 06:00:00 17.8 0 Calma 3 Oeste 0 -- -- 62
2017-07-25 05:00:00 19 0 Calma 2 Oeste 0 -- -- 63
2017-07-25 04:00:00 20.4 0 Calma 5 Sudeste 0 -- -- 57
2017-07-25 03:00:00 21.8 0 Calma 3 Sur 0 -- -- 55
2017-07-25 02:00:00 23.5 2 Noroeste 9 Noroeste 0 -- -- 48
2017-07-25 01:00:00 24.7 6 Noroeste 13 Noroeste 0 -- -- 44
2017-07-25 00:00:00 26.8 3 Noroeste 11 Noroeste 0 -- -- 38
2017-07-24 23:00:00 28.6 4 Norte 10 Norte 0 -- -- 36
2017-07-24 22:00:00 31.6 4 Noroeste 23 Oeste 0 -- -- 36
2017-07-24 21:00:00 34.5 14 Oeste 31 Sudoeste 0 -- -- 33
2017-07-24 20:00:00 36.4 18 Oeste 34 Sudoeste 0 -- -- 32
2017-07-24 19:00:00 40.4 14 Oeste 29 Noroeste 0 -- -- 18
2017-07-24 18:00:00 39.9 15 Sudoeste 31 Sudoeste 0 -- -- 22
2017-07-24 17:00:00 39.4 16 Oeste 31 Oeste 0 -- -- 25
2017-07-24 16:00:00 38.5 14 Sudoeste 26 Sudoeste 0 -- -- 27
2017-07-24 15:00:00 37.2 12 Sudoeste 24 Oeste 0 -- -- 28
2017-07-24 14:00:00 35.5 11 Sudoeste 24 Oeste 0 -- -- 32
2017-07-24 13:00:00 33.6 4 Sudeste 12 Nordeste 0 -- -- 36
2017-07-24 12:00:00 31.3 4 Este 13 Norte 0 -- -- 39
2017-07-24 11:00:00 29 5 Norte 11 Noroeste 0 -- -- 44
2017-07-24 10:00:00 25.6 0 Calma 5 Noroeste 0 -- -- 50
2017-07-24 09:00:00 20.1 3 Oeste 5 Noroeste 0 -- -- 65
2017-07-24 08:00:00 15.8 4 Noroeste 8 Noroeste 0 -- -- 73
2017-07-24 07:00:00 15.9 2 Noroeste 5 Noroeste 0 -- -- 73
2017-07-24 06:00:00 17.1 3 Norte 5 Norte 0 -- -- 71
2017-07-24 05:00:00 18.1 2 Sur 9 Norte 0 -- -- 69
2017-07-24 04:00:00 18.3 0 Calma 5 Sudeste 0 -- -- 68
2017-07-24 03:00:00 19.6 3 Sudeste 11 Sudeste 0 -- -- 67
2017-07-24 02:00:00 22.5 2 Noroeste 13 Noroeste 0 -- -- 58
2017-07-24 01:00:00 22.5 7 Norte 10 Noroeste 0 -- -- 57
2017-07-24 00:00:00 23.9 5 Noroeste 19 Noroeste 0 -- -- 50
2017-07-23 23:00:00 25.2 10 Noroeste 18 Noroeste 0 -- -- 47
2017-07-23 22:00:00 27.2 6 Noroeste 23 Oeste 0 -- -- 39
2017-07-23 21:00:00 30.9 7 Oeste 28 Oeste 0 -- -- 34
2017-07-23 20:00:00 33.7 18 Oeste 36 Oeste 0 -- -- 30
2017-07-23 19:00:00 36.7 20 Oeste 30 Oeste 0 -- -- 26
2017-07-23 18:00:00 37.4 8 Noroeste 21 Oeste 0 -- -- 20
2017-07-23 17:00:00 36.7 7 Nordeste 21 Oeste 0 -- -- 22
2017-07-23 16:00:00 36.2 6 Sur 22 Oeste 0 -- -- 24
2017-07-23 15:00:00 35.2 11 Oeste 22 Oeste 0 -- -- 24
2017-07-23 14:00:00 33.9 8 Sudoeste 16 Sudoeste 0 -- -- 28
2017-07-23 13:00:00 31.7 5 Sudeste 32 Este 0 -- -- 37
2017-07-23 12:00:00 29.6 3 Sudeste 11 Sudeste 0 -- -- 42
2017-07-23 11:00:00 27 4 Este 8 Este 0 -- -- 46
2017-07-23 10:00:00 23.4 2 Nordeste 8 Norte 0 -- -- 59
2017-07-23 09:00:00 18.6 2 Noroeste 7 Noroeste 0 -- -- 71
2017-07-23 08:00:00 13.9 0 Calma 4 Noroeste 0 -- -- 80
2017-07-23 07:00:00 14 2 Norte 5 Noroeste 0 -- -- 79
2017-07-23 06:00:00 14.6 0 Calma 5 Noroeste 0 -- -- 80
2017-07-23 05:00:00 15.1 3 Noroeste 5 Noroeste 0 -- -- 78
2017-07-23 04:00:00 16.3 2 Norte 12 Sur 0 -- -- 78
2017-07-23 03:00:00 17.5 0 Calma 3 Noroeste 0 -- -- 71
2017-07-23 02:00:00 19.4 3 Sur 8 Sudeste 0 -- -- 66
2017-07-23 01:00:00 21.1 2 Sudoeste 9 Oeste 0 -- -- 61
2017-07-23 00:00:00 22.3 5 Oeste 11 Oeste 0 -- -- 56